Time;durP1;ratioP1;P1;durP2;ratioP2;P2;SDS_P1;SDS_P2;PMS_P1;PMS_P2;Temp;Humidity;BMP_temperature;BMP_pressure;BME280_temperature;BME280_humidity;BME280_pressure;Samples;Min_cycle;Max_cycle;Signal;HPM_P1;HPM_P2
2023/03/26 00:00:55;;;;;;;1.90;0.90;;;8.60;99.90;;;;;;7395054;19;20341;-85
2023/03/26 00:03:22;;;;;;;1.80;1.13;;;8.60;99.90;;;;;;7391917;19;20312;-81
2023/03/26 00:05:48;;;;;;;1.10;1.00;;;8.60;99.90;;;;;;7391560;19;20353;-83
2023/03/26 00:08:14;;;;;;;1.20;1.10;;;8.60;99.90;;;;;;7382272;19;20331;-81
2023/03/26 00:10:40;;;;;;;1.55;1.10;;;8.60;99.90;;;;;;7394445;19;20335;-80
2023/03/26 00:13:06;;;;;;;2.28;1.08;;;8.60;99.90;;;;;;7394998;19;20846;-82
2023/03/26 00:15:32;;;;;;;1.30;1.00;;;8.60;99.90;;;;;;7392946;19;20349;-82
2023/03/26 00:17:59;;;;;;;1.23;1.07;;;8.60;99.90;;;;;;7393998;19;20392;-81
2023/03/26 00:20:28;;;;;;;1.20;1.00;;;8.60;99.90;;;;;;7391429;19;20324;-87
2023/03/26 00:22:54;;;;;;;1.23;1.10;;;8.60;99.90;;;;;;7392158;19;20321;-82
2023/03/26 00:25:20;;;;;;;1.23;1.08;;;8.60;99.90;;;;;;7392839;19;20440;-83
2023/03/26 00:27:47;;;;;;;2.93;1.20;;;8.60;99.90;;;;;;7395583;19;20332;-90
2023/03/26 00:30:14;;;;;;;1.75;1.05;;;8.60;99.90;;;;;;7391352;19;20309;-86
2023/03/26 00:32:39;;;;;;;1.85;1.00;;;8.60;99.90;;;;;;7389387;19;20350;-79
2023/03/26 00:35:06;;;;;;;1.90;0.90;;;8.70;99.90;;;;;;7385780;19;20738;-83
2023/03/26 00:37:32;;;;;;;1.73;1.20;;;8.70;99.90;;;;;;7388847;19;20320;-84
2023/03/26 00:40:01;;;;;;;0.80;0.80;;;8.60;99.90;;;;;;7392006;19;20320;-81
2023/03/26 00:42:27;;;;;;;2.80;1.20;;;8.60;99.90;;;;;;7395433;19;20336;-88
2023/03/26 00:44:56;;;;;;;1.58;1.02;;;8.60;99.90;;;;;;7392195;19;20326;-82
2023/03/26 00:47:28;;;;;;;1.23;1.07;;;8.60;99.90;;;;;;7389539;19;25989;-82
2023/03/26 00:49:56;;;;;;;1.83;1.20;;;8.60;99.90;;;;;;7393277;19;20341;-87
2023/03/26 00:52:22;;;;;;;3.08;1.10;;;8.50;99.90;;;;;;7390642;19;20321;-81
2023/03/26 00:54:50;;;;;;;1.37;1.13;;;8.50;99.90;;;;;;7389392;19;20337;-84
2023/03/26 00:57:15;;;;;;;1.85;1.10;;;8.50;99.90;;;;;;7390983;19;20332;-92
2023/03/26 00:59:41;;;;;;;1.70;1.33;;;8.50;99.90;;;;;;7390290;19;20309;-84
2023/03/26 01:02:10;;;;;;;1.10;0.90;;;8.50;99.90;;;;;;7391991;19;21041;-84
2023/03/26 01:04:37;;;;;;;1.75;1.20;;;8.50;99.90;;;;;;7393673;19;20325;-82
2023/03/26 01:07:09;;;;;;;1.30;1.00;;;8.50;99.90;;;;;;7389167;19;21110;-83
2023/03/26 01:09:41;;;;;;;1.42;1.00;;;8.60;99.90;;;;;;7392633;19;20305;-82
2023/03/26 01:12:10;;;;;;;1.70;0.93;;;8.60;99.90;;;;;;7393036;19;20309;-85
2023/03/26 01:14:36;;;;;;;1.15;1.05;;;8.60;99.90;;;;;;7394278;19;20321;-87
2023/03/26 01:17:03;;;;;;;0.80;0.80;;;8.50;99.90;;;;;;7395522;19;20327;-82
2023/03/26 01:19:44;;;;;;;1.90;0.85;;;8.50;99.90;;;;;;7394033;19;20352;-83
2023/03/26 01:22:17;;;;;;;1.17;1.00;;;8.50;99.90;;;;;;7293190;19;2004174;-83
2023/03/26 01:24:47;;;;;;;1.10;1.00;;;8.50;99.90;;;;;;7392180;19;20308;-81
2023/03/26 01:27:48;;;;;;;2.80;1.20;;;8.50;99.90;;;;;;7393609;19;20324;-82
2023/03/26 01:30:29;;;;;;;1.30;1.20;;;8.40;99.90;;;;;;7292607;19;2004353;-84
2023/03/26 01:33:21;;;;;;;1.30;1.10;;;8.50;99.90;;;;;;7393535;19;20342;-80
2023/03/26 01:36:05;;;;;;;1.08;1.00;;;8.50;99.90;;;;;;7291194;19;2004430;-85
2023/03/26 01:38:47;;;;;;;2.95;1.20;;;8.50;99.90;;;;;;7290085;19;2004341;-83
2023/03/26 01:41:26;;;;;;;1.35;1.25;;;8.40;99.90;;;;;;7394372;19;20328;-80
2023/03/26 01:44:14;;;;;;;1.00;0.90;;;8.50;99.90;;;;;;7399252;19;20339;-81
2023/03/26 01:46:39;;;;;;;0.80;0.80;;;8.50;99.90;;;;;;7290551;19;2004345;-84
2023/03/26 01:49:11;;;;;;;1.50;0.90;;;8.50;99.90;;;;;;7392564;19;21034;-82
2023/03/26 01:51:37;;;;;;;0.90;0.90;;;8.50;99.90;;;;;;7388973;19;20324;-83
2023/03/26 01:54:04;;;;;;;0.93;0.90;;;8.40;99.90;;;;;;7392099;19;20799;-81
2023/03/26 01:56:45;;;;;;;1.50;0.88;;;8.40;99.90;;;;;;7393544;19;20320;-80
2023/03/26 01:59:45;;;;;;;1.43;1.13;;;8.40;99.90;;;;;;7298605;19;2004564;-82
2023/03/26 02:02:20;;;;;;;0.80;0.80;;;8.30;99.90;;;;;;7286550;19;2004328;-82
2023/03/26 02:05:26;;;;;;;0.90;0.90;;;8.30;99.90;;;;;;7398321;19;20333;-85
2023/03/26 02:08:21;;;;;;;0.88;0.88;;;8.20;99.90;;;;;;7299779;19;2003909;-82
2023/03/26 02:10:52;;;;;;;0.90;0.90;;;8.20;99.90;;;;;;7294801;19;2004220;-79
2023/03/26 02:13:17;;;;;;;0.80;0.80;;;8.20;99.90;;;;;;7392811;19;20356;-82
2023/03/26 02:16:03;;;;;;;0.90;0.90;;;8.20;99.90;;;;;;7394228;19;20360;-81
2023/03/26 02:18:40;;;;;;;0.90;0.90;;;8.10;99.90;;;;;;7396657;19;20809;-88
2023/03/26 02:21:14;;;;;;;0.80;0.80;;;8.10;99.90;;;;;;7293997;19;2004411;-83
2023/03/26 02:23:45;;;;;;;2.35;0.90;;;8.10;99.90;;;;;;7392213;19;20345;-86
2023/03/26 02:26:11;;;;;;;2.08;1.00;;;8.10;99.90;;;;;;7395839;19;20308;-83
2023/03/26 02:28:48;;;;;;;1.10;0.80;;;8.10;99.90;;;;;;7392656;19;20320;-83
2023/03/26 02:31:18;;;;;;;1.00;0.75;;;8.00;99.90;;;;;;7392848;19;20324;-83
2023/03/26 02:33:48;;;;;;;1.80;0.90;;;8.00;99.90;;;;;;7394492;19;21189;-81
2023/03/26 02:36:14;;;;;;;0.90;0.80;;;8.00;99.90;;;;;;7394739;19;20308;-82
2023/03/26 02:38:42;;;;;;;1.35;0.93;;;8.00;99.90;;;;;;7396801;19;20309;-81
2023/03/26 02:41:08;;;;;;;0.83;0.80;;;8.00;99.90;;;;;;7394656;19;20373;-82
2023/03/26 02:43:48;;;;;;;0.93;0.90;;;8.00;99.90;;;;;;7395131;19;20349;-84
2023/03/26 02:46:16;;;;;;;0.83;0.83;;;8.00;99.90;;;;;;7395240;19;20317;-83
2023/03/26 02:48:52;;;;;;;0.73;0.73;;;8.00;99.90;;;;;;7395250;19;20889;-84
2023/03/26 02:51:24;;;;;;;1.20;1.00;;;8.00;99.90;;;;;;7394004;19;20337;-80
2023/03/26 02:54:02;;;;;;;0.90;0.90;;;8.00;99.90;;;;;;7293868;19;2004260;-82
2023/03/26 02:56:34;;;;;;;1.60;1.02;;;8.00;99.90;;;;;;7396722;19;20297;-83
2023/03/26 02:59:16;;;;;;;0.80;0.80;;;7.90;99.90;;;;;;7394056;19;20396;-81
2023/03/26 03:01:44;;;;;;;0.88;0.88;;;7.90;99.90;;;;;;7391577;19;20309;-81
2023/03/26 03:04:12;;;;;;;1.17;1.00;;;7.80;99.90;;;;;;7400508;19;20329;-80
2023/03/26 03:06:38;;;;;;;0.90;0.90;;;7.90;99.90;;;;;;7401343;19;20313;-79
2023/03/26 03:09:05;;;;;;;0.80;0.80;;;7.80;99.90;;;;;;7397585;19;20312;-86
2023/03/26 03:11:37;;;;;;;1.02;1.00;;;7.90;99.90;;;;;;7393352;19;20305;-80
2023/03/26 03:14:04;;;;;;;0.80;0.80;;;7.90;99.90;;;;;;7396250;19;20404;-82
2023/03/26 03:16:31;;;;;;;1.15;1.05;;;7.80;99.90;;;;;;7394873;19;20678;-82
2023/03/26 03:19:02;;;;;;;0.90;0.90;;;7.90;99.90;;;;;;7396906;19;20792;-85
2023/03/26 03:21:37;;;;;;;0.80;0.80;;;7.80;99.90;;;;;;7389701;19;20662;-82
2023/03/26 03:24:04;;;;;;;0.90;0.90;;;7.90;99.90;;;;;;7393737;19;20339;-83
2023/03/26 03:26:35;;;;;;;0.80;0.80;;;7.90;99.90;;;;;;7399893;19;20312;-80
2023/03/26 03:29:21;;;;;;;1.58;0.98;;;7.90;99.90;;;;;;7399319;19;20379;-81
2023/03/26 03:31:47;;;;;;;1.40;0.90;;;7.90;99.90;;;;;;7399256;19;20317;-81
2023/03/26 03:34:27;;;;;;;1.40;0.90;;;8.00;99.90;;;;;;7394284;19;20344;-81
2023/03/26 03:36:53;;;;;;;1.35;1.10;;;8.00;99.90;;;;;;7397933;19;20350;-80
2023/03/26 03:39:34;;;;;;;0.93;0.93;;;8.00;99.90;;;;;;7291551;19;2004598;-80
2023/03/26 03:42:00;;;;;;;0.80;0.80;;;8.00;99.90;;;;;;7394965;19;20326;-80
2023/03/26 03:44:26;;;;;;;0.90;0.90;;;8.00;99.90;;;;;;7398520;19;20349;-78
2023/03/26 03:46:54;;;;;;;0.80;0.80;;;7.90;99.90;;;;;;7395972;19;20339;-83
2023/03/26 03:49:21;;;;;;;0.80;0.80;;;7.90;99.90;;;;;;7394788;19;20301;-82
2023/03/26 03:55:15;;;;;;;0.85;0.85;;;7.90;99.90;;;;;;7189666;19;2004463;-80
2023/03/26 03:57:45;;;;;;;1.30;0.90;;;7.80;99.90;;;;;;7396103;19;20348;-81
2023/03/26 04:00:18;;;;;;;1.40;1.10;;;7.80;99.90;;;;;;7394563;19;20310;-78
2023/03/26 04:02:55;;;;;;;0.90;0.90;;;7.80;99.90;;;;;;7395291;19;20309;-81
2023/03/26 04:05:24;;;;;;;1.02;1.02;;;7.90;99.90;;;;;;7391359;19;20347;-82
2023/03/26 04:07:50;;;;;;;1.00;1.00;;;7.80;99.90;;;;;;7392717;19;21052;-79
2023/03/26 04:10:35;;;;;;;0.80;0.80;;;7.80;99.90;;;;;;7288194;19;2004384;-85
2023/03/26 04:13:00;;;;;;;1.20;1.10;;;7.80;99.90;;;;;;7391723;19;20305;-79
2023/03/26 04:15:47;;;;;;;1.13;0.95;;;7.80;99.90;;;;;;7291904;19;2004282;-79
2023/03/26 04:18:13;;;;;;;1.20;0.90;;;7.80;99.90;;;;;;7389053;19;20344;-79
2023/03/26 04:20:45;;;;;;;0.95;0.95;;;7.70;99.90;;;;;;7391139;19;20337;-79
2023/03/26 04:23:13;;;;;;;1.00;1.00;;;7.60;99.90;;;;;;7390690;19;20342;-80
2023/03/26 04:25:42;;;;;;;1.42;1.00;;;7.60;99.90;;;;;;7392724;19;20289;-86
2023/03/26 04:28:30;;;;;;;1.15;1.10;;;7.70;99.90;;;;;;7390154;19;20300;-80
2023/03/26 04:31:14;;;;;;;1.50;1.20;;;7.50;99.90;;;;;;7287555;19;2004271;-79
2023/03/26 04:33:40;;;;;;;1.10;1.10;;;7.50;99.90;;;;;;7385094;19;20341;-82
2023/03/26 04:36:05;;;;;;;1.00;1.00;;;7.40;99.90;;;;;;7392643;19;20316;-79
2023/03/26 04:38:44;;;;;;;0.90;0.90;;;7.40;99.90;;;;;;7393495;19;20320;-84
2023/03/26 04:41:11;;;;;;;1.63;1.10;;;7.40;99.90;;;;;;7390364;19;20416;-80
2023/03/26 04:43:49;;;;;;;1.23;1.17;;;7.30;99.90;;;;;;7385208;19;20324;-78
2023/03/26 04:46:42;;;;;;;1.77;1.10;;;7.30;99.90;;;;;;7284446;19;2004269;-79
2023/03/26 04:49:19;;;;;;;0.98;0.98;;;7.20;99.90;;;;;;7384761;19;20309;-84
2023/03/26 04:51:45;;;;;;;1.00;1.00;;;7.20;99.90;;;;;;7390029;19;20324;-79
2023/03/26 04:54:37;;;;;;;1.20;1.00;;;7.20;99.90;;;;;;7285843;19;2004382;-82
2023/03/26 04:57:32;;;;;;;2.78;1.15;;;7.20;99.90;;;;;;7385170;19;20301;-85
2023/03/26 05:00:14;;;;;;;0.93;0.90;;;7.20;99.90;;;;;;7285501;19;2004674;-79
2023/03/26 05:02:43;;;;;;;0.80;0.80;;;7.20;99.90;;;;;;7387753;19;20391;-78
2023/03/26 05:05:09;;;;;;;1.20;1.02;;;7.20;99.90;;;;;;7390389;19;20325;-81
2023/03/26 05:07:35;;;;;;;0.80;0.80;;;7.30;99.90;;;;;;7390305;19;20324;-78
2023/03/26 05:10:02;;;;;;;1.00;1.00;;;7.30;99.90;;;;;;7390401;19;20308;-79
2023/03/26 05:12:37;;;;;;;1.35;1.25;;;7.30;99.90;;;;;;7287918;19;2004191;-80
2023/03/26 05:15:10;;;;;;;3.03;1.08;;;7.20;99.90;;;;;;7389820;19;20341;-82
2023/03/26 05:17:55;;;;;;;1.20;1.10;;;7.20;99.90;;;;;;7388425;19;21284;-78
2023/03/26 05:20:35;;;;;;;1.13;1.02;;;7.20;99.90;;;;;;7285177;19;2004348;-80
2023/03/26 05:23:03;;;;;;;1.65;1.02;;;7.30;99.90;;;;;;7386073;19;20313;-81
2023/03/26 05:25:31;;;;;;;0.95;0.93;;;7.30;99.90;;;;;;7387365;19;20342;-79
2023/03/26 05:27:58;;;;;;;1.10;1.10;;;7.30;99.90;;;;;;7389524;19;20324;-82
2023/03/26 05:30:30;;;;;;;0.90;0.90;;;7.30;99.90;;;;;;7390172;19;20313;-85
2023/03/26 05:33:01;;;;;;;1.30;1.00;;;7.30;99.90;;;;;;7389636;19;20316;-81
2023/03/26 05:35:34;;;;;;;1.00;1.00;;;7.30;99.90;;;;;;7285984;19;2004287;-84
2023/03/26 05:38:00;;;;;;;1.17;1.10;;;7.20;99.90;;;;;;7395950;19;20368;-88
2023/03/26 05:40:26;;;;;;;1.10;1.10;;;7.20;99.90;;;;;;7398600;19;20312;-84
2023/03/26 05:43:04;;;;;;;1.20;1.10;;;7.20;99.90;;;;;;7394063;19;20348;-84
2023/03/26 05:45:46;;;;;;;1.50;1.10;;;7.10;99.90;;;;;;7293556;19;2004351;-84
2023/03/26 05:48:31;;;;;;;1.20;1.10;;;7.20;99.90;;;;;;7394882;19;20327;-82
2023/03/26 05:50:57;;;;;;;1.50;1.23;;;7.30;99.90;;;;;;7393316;19;20532;-90
2023/03/26 05:53:31;;;;;;;1.13;1.02;;;7.30;99.90;;;;;;7388661;19;20317;-82
2023/03/26 05:56:15;;;;;;;1.70;1.17;;;7.30;99.90;;;;;;7288451;19;2004479;-85
2023/03/26 05:59:07;;;;;;;1.10;1.00;;;7.30;99.90;;;;;;7288269;19;2004510;-85
2023/03/26 06:01:53;;;;;;;1.33;1.23;;;7.40;99.90;;;;;;7388861;19;20876;-79
2023/03/26 06:04:39;;;;;;;1.20;1.20;;;7.50;99.90;;;;;;7283530;19;2004216;-81
2023/03/26 06:07:25;;;;;;;0.95;0.95;;;7.50;99.90;;;;;;7389618;19;21004;-85
2023/03/26 06:10:08;;;;;;;1.80;1.30;;;7.60;99.90;;;;;;7285830;19;2004367;-80
2023/03/26 06:12:36;;;;;;;1.10;1.10;;;7.70;99.90;;;;;;7385001;19;20319;-81
2023/03/26 06:15:02;;;;;;;1.10;1.10;;;7.70;99.90;;;;;;7386507;19;20356;-82
2023/03/26 06:18:08;;;;;;;1.33;1.23;;;7.80;99.90;;;;;;7287010;19;2004503;-77
2023/03/26 06:20:34;;;;;;;1.10;1.00;;;7.80;99.90;;;;;;7393325;19;20391;-81
2023/03/26 06:23:06;;;;;;;1.30;1.20;;;7.80;99.90;;;;;;7385539;19;20405;-79
2023/03/26 06:25:56;;;;;;;1.02;0.93;;;7.90;99.90;;;;;;7400382;19;20339;-88
2023/03/26 06:28:46;;;;;;;1.40;1.30;;;7.90;99.90;;;;;;7298141;19;2004225;-84
2023/03/26 06:31:35;;;;;;;3.83;1.20;;;7.90;99.90;;;;;;7296593;19;2004383;-83
2023/03/26 06:34:23;;;;;;;2.15;1.20;;;7.90;99.90;;;;;;7398568;19;20324;-82
2023/03/26 06:36:51;;;;;;;1.03;1.03;;;8.00;99.90;;;;;;7398721;19;20857;-81
2023/03/26 06:39:18;;;;;;;1.50;1.40;;;8.10;99.90;;;;;;7402045;19;20342;-89
2023/03/26 06:41:51;;;;;;;1.38;1.27;;;8.10;99.90;;;;;;7400000;19;20873;-92
2023/03/26 06:44:38;;;;;;;1.50;1.40;;;8.10;99.90;;;;;;7303231;19;2004398;-85
2023/03/26 06:47:32;;;;;;;1.30;1.20;;;8.20;99.90;;;;;;7411407;19;20341;-90
2023/03/26 06:50:16;;;;;;;1.70;1.20;;;8.30;99.90;;;;;;7305438;19;2004368;-86
2023/03/26 06:53:06;;;;;;;1.58;1.40;;;8.30;99.90;;;;;;7302936;19;2004340;-89
2023/03/26 06:55:44;;;;;;;1.60;1.50;;;8.30;99.90;;;;;;7407029;19;20316;-89
2023/03/26 06:58:29;;;;;;;1.52;1.42;;;8.30;99.90;;;;;;7406651;19;20308;-83
2023/03/26 07:00:55;;;;;;;2.40;1.30;;;8.30;99.90;;;;;;7404436;19;20316;-89
2023/03/26 07:03:39;;;;;;;1.20;1.13;;;8.40;99.90;;;;;;7305667;19;2004366;-89
2023/03/26 07:06:24;;;;;;;2.47;1.60;;;8.50;99.90;;;;;;7406562;19;20339;-85
2023/03/26 07:09:08;;;;;;;2.07;1.40;;;8.30;99.90;;;;;;7303426;19;2004341;-85
2023/03/26 07:11:52;;;;;;;1.80;1.70;;;8.30;99.90;;;;;;7403612;19;20398;-84
2023/03/26 07:14:50;;;;;;;1.70;1.60;;;8.40;99.90;;;;;;7302094;19;2004361;-89
2023/03/26 07:17:45;;;;;;;1.25;1.20;;;8.40;99.90;;;;;;7302404;19;2004605;-81
2023/03/26 07:20:14;;;;;;;5.85;1.65;;;8.40;99.90;;;;;;7406320;19;20869;-87
2023/03/26 07:22:41;;;;;;;1.50;1.40;;;8.50;99.90;;;;;;7402835;19;20325;-89
2023/03/26 07:25:07;;;;;;;2.95;1.75;;;8.50;99.90;;;;;;7404475;19;20301;-82
2023/03/26 07:28:05;;;;;;;2.42;2.15;;;8.60;99.90;;;;;;7403142;19;20405;-89
2023/03/26 07:31:10;;;;;;;11.48;5.68;;;8.60;99.90;;;;;;7299728;19;2004199;-87
2023/03/26 07:34:06;;;;;;;3.30;2.47;;;8.60;99.90;;;;;;7299135;19;2004136;-87
2023/03/26 07:37:18;;;;;;;2.60;2.00;;;8.70;99.90;;;;;;7299027;19;2004263;-88
2023/03/26 07:40:22;;;;;;;2.22;1.52;;;8.80;99.90;;;;;;7199435;19;2004469;-89
2023/03/26 07:43:22;;;;;;;3.05;1.35;;;8.80;99.90;;;;;;7301029;19;2004464;-91
2023/03/26 07:46:22;;;;;;;2.10;1.42;;;8.70;99.90;;;;;;7303076;19;2004321;-86
2023/03/26 07:49:00;;;;;;;1.58;1.20;;;8.70;99.90;;;;;;7404689;19;20312;-89
2023/03/26 07:51:34;;;;;;;2.25;1.48;;;8.80;99.90;;;;;;7302559;19;2004198;-89
2023/03/26 07:54:12;;;;;;;3.30;1.80;;;9.00;99.90;;;;;;7407211;19;20408;-87
2023/03/26 07:56:56;;;;;;;1.83;1.40;;;9.10;99.90;;;;;;7403698;19;20313;-86
2023/03/26 08:00:25;;;;;;;1.65;1.55;;;9.10;99.90;;;;;;7293745;19;2004253;-83
2023/03/26 08:03:15;;;;;;;1.73;1.33;;;9.00;99.90;;;;;;7186351;19;2004523;-90
2023/03/26 08:06:32;;;;;;;1.90;1.52;;;9.20;99.90;;;;;;7293169;19;2004497;-84
2023/03/26 08:09:57;;;;;;;3.47;1.55;;;9.10;99.90;;;;;;7190959;19;2004511;-86
2023/03/26 08:13:13;;;;;;;1.90;1.80;;;9.20;99.90;;;;;;7191485;19;2004396;-80
2023/03/26 08:16:16;;;;;;;2.97;1.90;;;9.30;99.90;;;;;;7295780;19;2004555;-83
2023/03/26 08:19:15;;;;;;;2.17;1.40;;;9.30;99.90;;;;;;7297368;19;2004554;-84
2023/03/26 08:22:11;;;;;;;3.17;1.80;;;9.40;99.90;;;;;;7296666;19;2004500;-85
2023/03/26 08:24:56;;;;;;;1.98;1.67;;;9.50;99.90;;;;;;7295653;19;2005816;-84
2023/03/26 08:27:46;;;;;;;3.60;1.95;;;9.50;99.90;;;;;;7393279;19;20296;-81
2023/03/26 08:30:20;;;;;;;1.98;1.25;;;9.60;99.90;;;;;;7289056;19;2004510;-88
2023/03/26 08:32:59;;;;;;;3.70;1.83;;;9.80;99.90;;;;;;7395066;19;20758;-84
2023/03/26 08:35:25;;;;;;;2.67;2.00;;;9.80;99.90;;;;;;7396970;19;20328;-91
2023/03/26 08:37:51;;;;;;;3.80;2.10;;;9.80;99.90;;;;;;7408212;19;20328;-81
2023/03/26 08:40:29;;;;;;;5.30;1.70;;;9.90;99.90;;;;;;7399397;19;20320;-80
2023/03/26 08:43:00;;;;;;;2.25;1.42;;;9.90;99.90;;;;;;7390534;19;20308;-88
2023/03/26 08:46:06;;;;;;;1.77;1.67;;;9.90;99.90;;;;;;7389286;19;20353;-84
2023/03/26 08:48:47;;;;;;;3.33;1.63;;;10.00;99.90;;;;;;7185813;19;2019185;-80
2023/03/26 08:51:12;;;;;;;3.08;1.98;;;10.10;99.90;;;;;;7280818;19;2004178;-80
2023/03/26 08:53:57;;;;;;;3.78;1.10;;;10.40;99.90;;;;;;7386691;19;20376;-82
2023/03/26 08:56:31;;;;;;;1.77;1.33;;;10.50;99.90;;;;;;7388247;19;21330;-84
2023/03/26 08:59:16;;;;;;;2.75;1.40;;;10.80;99.90;;;;;;7388788;19;20837;-84
2023/03/26 09:01:57;;;;;;;2.67;1.83;;;10.80;99.90;;;;;;7288938;19;2004680;-79
2023/03/26 09:04:35;;;;;;;1.50;1.40;;;10.60;99.90;;;;;;7397712;19;20446;-79
2023/03/26 09:07:13;;;;;;;2.40;1.40;;;10.50;99.90;;;;;;7397853;19;20305;-82
2023/03/26 09:10:08;;;;;;;1.83;1.25;;;10.70;99.90;;;;;;7294476;19;2004438;-87
2023/03/26 09:13:08;;;;;;;1.43;1.30;;;10.70;99.90;;;;;;7294316;19;2004322;-89
2023/03/26 09:15:49;;;;;;;1.30;1.20;;;10.90;99.90;;;;;;7292001;19;2017662;-80
2023/03/26 09:18:53;;;;;;;1.20;1.10;;;10.80;99.90;;;;;;7396475;19;20340;-91
2023/03/26 09:21:33;;;;;;;1.70;1.27;;;10.70;99.90;;;;;;7292240;19;2004494;-88
2023/03/26 09:24:31;;;;;;;2.85;2.13;;;10.60;99.90;;;;;;7398280;19;20307;-87
2023/03/26 09:27:07;;;;;;;1.83;1.53;;;10.70;99.90;;;;;;7296057;19;2011477;-85
2023/03/26 09:29:52;;;;;;;3.20;1.70;;;10.80;99.90;;;;;;7402532;19;20320;-88
2023/03/26 09:32:32;;;;;;;1.80;1.30;;;10.80;99.90;;;;;;7293579;19;2004197;-88
2023/03/26 09:35:10;;;;;;;2.17;1.13;;;11.00;99.90;;;;;;7401449;19;20305;-91
2023/03/26 09:37:43;;;;;;;1.35;1.20;;;11.20;99.90;;;;;;7295803;19;2004280;-93
2023/03/26 09:40:21;;;;;;;1.80;1.30;;;10.90;99.90;;;;;;7398778;19;20416;-90
2023/03/26 09:43:01;;;;;;;1.30;1.20;;;10.50;99.90;;;;;;7398218;19;20373;-85
2023/03/26 09:45:42;;;;;;;1.67;1.27;;;10.30;99.90;;;;;;7400210;19;20334;-87
2023/03/26 09:48:24;;;;;;;2.50;1.30;;;10.30;99.90;;;;;;7293718;19;2004383;-89
2023/03/26 09:51:17;;;;;;;2.50;1.30;;;10.30;99.90;;;;;;7395683;19;20321;-92
2023/03/26 09:54:05;;;;;;;2.15;1.10;;;10.20;99.90;;;;;;7292366;19;2004324;-85
2023/03/26 09:56:34;;;;;;;1.85;1.63;;;10.10;99.90;;;;;;7397991;19;20323;-86
2023/03/26 09:59:30;;;;;;;2.65;2.10;;;10.00;99.90;;;;;;7397705;19;20309;-85
2023/03/26 10:02:35;;;;;;;2.40;1.90;;;10.10;99.90;;;;;;7293883;19;2004237;-91
2023/03/26 10:05:07;;;;;;;3.33;1.92;;;10.20;99.90;;;;;;7296337;19;2004382;-90
2023/03/26 10:07:39;;;;;;;2.27;1.47;;;10.30;99.90;;;;;;7397172;19;20369;-89
2023/03/26 10:10:16;;;;;;;2.80;1.75;;;10.40;99.90;;;;;;7296676;19;2004164;-80
2023/03/26 10:12:47;;;;;;;2.17;1.60;;;10.30;99.90;;;;;;7395464;19;20304;-91
2023/03/26 10:15:37;;;;;;;2.38;1.90;;;10.10;99.90;;;;;;7390492;19;20861;-90
2023/03/26 10:18:19;;;;;;;5.27;2.17;;;10.30;99.90;;;;;;7400854;19;20313;-92
2023/03/26 10:20:54;;;;;;;1.58;1.20;;;10.20;99.90;;;;;;7303263;19;2004388;-92
2023/03/26 10:23:44;;;;;;;2.55;1.52;;;10.40;99.90;;;;;;7406905;19;20305;-82
2023/03/26 10:26:26;;;;;;;2.00;1.70;;;10.40;99.90;;;;;;7306064;19;2004696;-90
2023/03/26 10:29:29;;;;;;;1.88;1.10;;;10.60;99.90;;;;;;7405686;19;20341;-84
2023/03/26 10:32:21;;;;;;;2.63;1.40;;;10.60;99.90;;;;;;7304083;19;2004207;-89
2023/03/26 10:35:24;;;;;;;1.40;1.30;;;10.80;99.90;;;;;;7305153;19;2004216;-89
2023/03/26 10:38:25;;;;;;;2.22;1.40;;;11.00;99.90;;;;;;7302003;19;2006307;-85
2023/03/26 10:40:58;;;;;;;2.80;1.60;;;11.10;99.90;;;;;;7306027;19;2004458;-87
2023/03/26 10:44:20;;;;;;;1.35;1.25;;;11.30;99.90;;;;;;7406227;19;20846;-85
2023/03/26 10:47:01;;;;;;;1.20;1.10;;;11.40;99.90;;;;;;7197577;19;2004338;-86
2023/03/26 10:49:39;;;;;;;1.88;1.60;;;11.40;99.90;;;;;;7406652;19;20304;-88
2023/03/26 10:52:17;;;;;;;1.40;1.13;;;11.30;99.90;;;;;;7301565;19;2004539;-82
2023/03/26 10:55:17;;;;;;;1.70;1.40;;;11.40;99.90;;;;;;7404866;19;20320;-91
2023/03/26 10:57:49;;;;;;;1.70;1.40;;;11.50;99.90;;;;;;7303628;19;2004289;-88
2023/03/26 11:00:24;;;;;;;3.63;1.50;;;11.60;99.90;;;;;;7407059;19;20312;-82
2023/03/26 11:03:24;;;;;;;1.58;1.27;;;11.80;99.90;;;;;;7406699;19;20324;-88
2023/03/26 11:06:14;;;;;;;2.80;1.45;;;12.00;99.90;;;;;;7306159;19;2004226;-85
2023/03/26 11:09:14;;;;;;;1.33;1.23;;;12.20;99.90;;;;;;7306309;19;2004493;-91
2023/03/26 11:11:54;;;;;;;0.98;0.98;;;12.20;99.90;;;;;;7306208;19;2004285;-91
2023/03/26 11:14:39;;;;;;;3.30;1.10;;;12.40;99.90;;;;;;7408243;19;20321;-86
2023/03/26 11:17:16;;;;;;;2.65;1.38;;;12.50;99.90;;;;;;7306646;19;2004101;-85
2023/03/26 11:19:53;;;;;;;1.55;1.40;;;12.90;99.90;;;;;;7411388;19;20360;-87
2023/03/26 11:22:41;;;;;;;1.17;1.10;;;13.20;99.90;;;;;;7416211;19;20339;-92
2023/03/26 11:25:58;;;;;;;1.73;1.08;;;13.30;99.90;;;;;;7309133;19;2004326;-87
2023/03/26 11:28:31;;;;;;;0.90;0.90;;;13.40;99.90;;;;;;7306424;19;2004189;-84
2023/03/26 11:31:16;;;;;;;1.77;1.10;;;13.60;99.90;;;;;;7413987;19;20323;-88
2023/03/26 11:33:48;;;;;;;1.80;1.10;;;13.70;99.90;;;;;;7312909;19;2004257;-86
2023/03/26 11:36:16;;;;;;;1.30;1.10;;;13.90;99.90;;;;;;7417806;19;20348;-90
2023/03/26 11:38:45;;;;;;;1.20;1.10;;;13.50;99.90;;;;;;7414014;19;20338;-87
2023/03/26 11:41:17;;;;;;;1.10;1.00;;;13.50;99.90;;;;;;7409545;19;20407;-81
2023/03/26 11:44:09;;;;;;;2.08;1.30;;;13.50;99.90;;;;;;7408388;19;20316;-90
2023/03/26 11:46:37;;;;;;;2.20;1.25;;;13.00;99.90;;;;;;7311018;19;2004167;-88
2023/03/26 11:49:09;;;;;;;1.73;1.20;;;13.60;99.90;;;;;;7418122;19;20313;-82
2023/03/26 11:51:40;;;;;;;1.10;1.00;;;14.20;99.90;;;;;;7272933;19;2004142;-82
2023/03/26 11:54:12;;;;;;;1.33;1.23;;;14.30;99.90;;;;;;7291251;19;2004491;-81
2023/03/26 11:57:14;;;;;;;1.08;0.98;;;14.20;99.90;;;;;;7336446;19;20340;-80
2023/03/26 12:00:10;;;;;;;1.80;1.17;;;14.40;99.90;;;;;;7263387;19;2004255;-81
2023/03/26 12:02:40;;;;;;;1.20;1.10;;;13.60;99.90;;;;;;7304445;19;2004504;-82
2023/03/26 12:05:19;;;;;;;2.00;1.13;;;13.50;99.90;;;;;;7414906;19;20325;-87
2023/03/26 12:07:51;;;;;;;1.83;1.00;;;13.30;99.90;;;;;;7413927;19;20378;-90
2023/03/26 12:10:33;;;;;;;1.20;1.08;;;13.20;99.90;;;;;;7411204;19;20305;-87
2023/03/26 12:13:01;;;;;;;2.30;1.55;;;12.90;99.90;;;;;;7411111;19;20324;-88
2023/03/26 12:15:27;;;;;;;1.23;1.13;;;13.20;99.90;;;;;;7411279;19;20315;-90
2023/03/26 12:17:55;;;;;;;1.20;1.10;;;13.20;99.90;;;;;;7411962;19;20325;-88
2023/03/26 12:20:23;;;;;;;1.45;1.35;;;13.20;99.90;;;;;;7412372;19;20330;-87
2023/03/26 12:22:52;;;;;;;3.53;1.58;;;13.20;99.90;;;;;;7409247;19;20419;-91
2023/03/26 12:25:27;;;;;;;1.60;1.23;;;13.00;99.90;;;;;;7408670;19;20305;-88
2023/03/26 12:28:03;;;;;;;1.15;1.15;;;12.80;99.90;;;;;;7409502;19;20305;-86
2023/03/26 12:30:38;;;;;;;2.53;1.85;;;12.40;99.90;;;;;;7406815;19;20369;-89
2023/03/26 12:33:17;;;;;;;1.90;1.25;;;12.60;99.90;;;;;;7409212;19;20327;-89
2023/03/26 12:35:42;;;;;;;1.30;1.10;;;12.40;99.90;;;;;;7305143;19;2004345;-90
2023/03/26 12:38:32;;;;;;;2.63;1.98;;;12.20;99.90;;;;;;7406316;19;20811;-88
2023/03/26 12:41:08;;;;;;;1.00;1.00;;;12.30;99.90;;;;;;7407341;19;20336;-92
2023/03/26 12:43:47;;;;;;;1.90;1.15;;;12.40;99.90;;;;;;7410836;19;20305;-92
2023/03/26 12:46:31;;;;;;;1.00;0.95;;;12.50;99.90;;;;;;7304595;19;2004329;-88
2023/03/26 12:49:03;;;;;;;1.30;1.10;;;12.30;99.90;;;;;;7409499;19;20311;-88
2023/03/26 12:51:48;;;;;;;1.40;1.30;;;12.40;99.90;;;;;;7407444;19;20312;-86
2023/03/26 12:54:31;;;;;;;1.25;1.20;;;12.50;99.90;;;;;;7304512;19;2004586;-90
2023/03/26 12:57:15;;;;;;;1.75;1.20;;;12.30;99.90;;;;;;7409273;19;20341;-88
2023/03/26 13:00:08;;;;;;;1.38;1.00;;;12.40;99.90;;;;;;7306769;19;2004366;-86
2023/03/26 13:02:58;;;;;;;1.08;1.08;;;12.20;99.90;;;;;;7408878;19;20336;-89
2023/03/26 13:05:28;;;;;;;2.03;1.45;;;12.20;99.90;;;;;;7303399;19;2004223;-89
2023/03/26 13:07:59;;;;;;;1.92;1.38;;;12.20;99.90;;;;;;7408699;19;20400;-87
2023/03/26 13:10:33;;;;;;;1.58;1.38;;;12.30;99.90;;;;;;7408337;19;20336;-90
2023/03/26 13:13:05;;;;;;;2.38;1.70;;;12.60;99.90;;;;;;7410489;19;20300;-87
2023/03/26 13:15:35;;;;;;;1.55;1.33;;;12.90;99.90;;;;;;7411138;19;20321;-89
2023/03/26 13:18:20;;;;;;;1.50;1.40;;;12.70;99.90;;;;;;7405926;19;20338;-86
2023/03/26 13:21:16;;;;;;;1.40;1.30;;;12.60;99.90;;;;;;7302568;19;2004252;-89
2023/03/26 13:23:45;;;;;;;1.33;1.23;;;12.60;99.90;;;;;;7303434;19;2004232;-86
2023/03/26 13:26:36;;;;;;;1.58;1.00;;;12.40;99.90;;;;;;7404457;19;20305;-92
2023/03/26 13:29:25;;;;;;;2.65;1.45;;;12.30;99.90;;;;;;7402932;19;20402;-90
2023/03/26 13:31:54;;;;;;;1.85;1.25;;;12.00;99.90;;;;;;7302335;19;2004294;-93
2023/03/26 13:34:47;;;;;;;3.38;1.70;;;12.00;99.90;;;;;;7405594;19;20338;-91
2023/03/26 13:37:15;;;;;;;1.80;1.70;;;12.00;99.90;;;;;;7304938;19;2004356;-91
2023/03/26 13:40:08;;;;;;;1.53;1.43;;;12.00;99.90;;;;;;7408221;19;20327;-90
2023/03/26 13:42:59;;;;;;;1.40;1.30;;;12.10;99.90;;;;;;7404973;19;20326;-93
2023/03/26 13:45:50;;;;;;;2.35;1.42;;;12.20;99.90;;;;;;7303087;19;2004162;-83
2023/03/26 13:48:20;;;;;;;1.20;1.10;;;12.20;99.90;;;;;;7302581;19;2004693;-80